Time;durP1;ratioP1;P1;durP2;ratioP2;P2;SDS_P1;SDS_P2;PMS_P1;PMS_P2;Temp;Humidity;BMP_temperature;BMP_pressure;BME280_temperature;BME280_humidity;BME280_pressure;Samples;Min_cycle;Max_cycle;Signal;HPM_P1;HPM_P2
2021/04/28 00:00:30;;;;;;;24.85;14.13;;;10.50;62.50;;;;;;5076708;28;20449;-77
2021/04/28 00:02:56;;;;;;;22.45;13.93;;;10.60;61.70;;;;;;5082433;28;20440;-77
2021/04/28 00:05:22;;;;;;;22.60;13.98;;;10.60;61.10;;;;;;5080424;28;20032;-77
2021/04/28 00:07:49;;;;;;;21.20;13.43;;;11.00;60.60;;;;;;5076708;28;20070;-77
2021/04/28 00:10:18;;;;;;;21.08;13.27;;;10.90;60.20;;;;;;5063419;28;20071;-77
2021/04/28 00:12:45;;;;;;;19.10;12.90;;;10.70;61.00;;;;;;5066764;28;20059;-76
2021/04/28 00:15:15;;;;;;;22.40;14.32;;;10.80;61.00;;;;;;5077397;28;20532;-77
2021/04/28 00:17:41;;;;;;;21.30;13.73;;;10.90;60.30;;;;;;5072717;28;20546;-77
2021/04/28 00:20:09;;;;;;;20.20;13.07;;;10.70;60.60;;;;;;5076822;28;20025;-77
2021/04/28 00:22:35;;;;;;;23.02;13.95;;;10.90;60.60;;;;;;5075363;28;20033;-77
2021/04/28 00:25:04;;;;;;;22.90;15.00;;;10.60;60.40;;;;;;5075222;28;20075;-77
2021/04/28 00:27:30;;;;;;;26.02;14.57;;;9.90;62.70;;;;;;5076548;28;20025;-77
2021/04/28 00:29:56;;;;;;;21.17;13.93;;;9.80;64.90;;;;;;5076653;28;20029;-77
2021/04/28 00:32:21;;;;;;;26.10;14.75;;;10.00;63.20;;;;;;5076365;28;20033;-77
2021/04/28 00:34:47;;;;;;;24.73;15.27;;;10.30;62.10;;;;;;5076787;28;20032;-77
2021/04/28 00:37:13;;;;;;;21.83;15.35;;;10.20;61.90;;;;;;5076977;28;20027;-77
2021/04/28 00:39:39;;;;;;;22.52;15.32;;;10.10;61.60;;;;;;5076630;28;20032;-77
2021/04/28 00:42:06;;;;;;;21.33;14.75;;;9.90;63.10;;;;;;5075785;28;20053;-77
2021/04/28 00:44:32;;;;;;;24.40;15.15;;;9.80;62.40;;;;;;5076826;28;20483;-77
2021/04/28 00:46:58;;;;;;;22.23;15.05;;;9.80;63.70;;;;;;5076178;28;20067;-78
2021/04/28 00:49:24;;;;;;;23.92;13.68;;;9.70;63.10;;;;;;5076148;28;20032;-78
2021/04/28 00:51:50;;;;;;;25.38;16.08;;;9.90;64.60;;;;;;5076173;28;20060;-78
2021/04/28 00:54:18;;;;;;;23.05;15.07;;;9.60;63.00;;;;;;5076603;28;20036;-78
2021/04/28 00:56:43;;;;;;;25.25;16.05;;;9.30;64.00;;;;;;5075562;28;20017;-78
2021/04/28 00:59:12;;;;;;;24.30;16.42;;;9.40;64.00;;;;;;5076065;28;20020;-78
2021/04/28 01:01:38;;;;;;;22.75;14.90;;;9.20;64.70;;;;;;5076502;28;20054;-78
2021/04/28 01:04:05;;;;;;;25.33;16.67;;;9.20;64.90;;;;;;5076238;28;20040;-78
2021/04/28 01:06:32;;;;;;;26.20;17.20;;;9.30;64.10;;;;;;5075338;28;20074;-78
2021/04/28 01:08:59;;;;;;;23.70;15.70;;;9.30;64.10;;;;;;5073854;28;20040;-77
2021/04/28 01:11:27;;;;;;;28.55;17.05;;;9.50;64.40;;;;;;5074616;28;20037;-78
2021/04/28 01:13:55;;;;;;;23.42;16.52;;;9.40;64.20;;;;;;5075345;28;20060;-77
2021/04/28 01:16:21;;;;;;;25.52;16.02;;;9.40;64.30;;;;;;5067484;28;20128;-77
2021/04/28 01:18:47;;;;;;;24.98;14.88;;;9.30;64.30;;;;;;5078333;28;20047;-78
2021/04/28 01:21:12;;;;;;;25.85;15.95;;;9.30;64.50;;;;;;5078636;28;20025;-78
2021/04/28 01:23:40;;;;;;;24.88;15.48;;;9.20;64.30;;;;;;5078565;28;20097;-78
2021/04/28 01:26:06;;;;;;;24.80;16.23;;;9.40;64.50;;;;;;5078961;28;20082;-78
2021/04/28 01:28:33;;;;;;;25.10;15.65;;;9.40;64.30;;;;;;5079629;28;20032;-78
2021/04/28 01:31:08;;;;;;;24.08;15.25;;;9.20;64.90;;;;;;5078774;28;20056;-78
2021/04/28 01:33:48;;;;;;;25.63;15.75;;;9.10;64.70;;;;;;5079223;28;20033;-78
2021/04/28 01:36:27;;;;;;;28.65;17.30;;;9.10;65.30;;;;;;5079694;28;20031;-78
2021/04/28 01:39:01;;;;;;;24.10;15.27;;;8.80;66.30;;;;;;5078977;28;20028;-77
2021/04/28 01:41:28;;;;;;;22.05;15.73;;;8.80;66.30;;;;;;5079124;28;20447;-77
2021/04/28 01:43:55;;;;;;;24.23;16.50;;;9.10;66.70;;;;;;5079296;28;20466;-78
2021/04/28 01:46:25;;;;;;;23.23;15.85;;;9.20;65.20;;;;;;5079854;28;20021;-78
2021/04/28 01:48:52;;;;;;;26.75;17.45;;;9.30;64.90;;;;;;5076406;28;20111;-78
2021/04/28 01:51:18;;;;;;;23.50;16.27;;;9.30;63.90;;;;;;5077584;28;20020;-78
2021/04/28 01:53:45;;;;;;;21.95;14.88;;;9.10;64.80;;;;;;5078993;28;20040;-77
2021/04/28 01:56:11;;;;;;;26.25;16.73;;;8.80;65.80;;;;;;5077993;28;20398;-77
2021/04/28 01:58:39;;;;;;;25.63;16.90;;;9.00;66.30;;;;;;5077845;28;20032;-78
2021/04/28 02:01:07;;;;;;;22.73;15.20;;;8.90;65.80;;;;;;5079023;28;20536;-78
2021/04/28 02:03:33;;;;;;;25.10;16.55;;;8.80;66.80;;;;;;5077394;28;20115;-78
2021/04/28 02:06:00;;;;;;;26.48;17.35;;;8.70;66.20;;;;;;5082653;28;20020;-78
2021/04/28 02:08:27;;;;;;;22.27;15.57;;;8.70;66.50;;;;;;5077222;28;20081;-77
2021/04/28 02:10:53;;;;;;;24.58;15.63;;;8.60;66.20;;;;;;5077808;28;20040;-77
2021/04/28 02:13:22;;;;;;;27.77;16.52;;;8.60;66.90;;;;;;5077844;28;20055;-77
2021/04/28 02:15:48;;;;;;;28.83;17.55;;;8.70;66.00;;;;;;5076974;28;20395;-78
2021/04/28 02:18:16;;;;;;;24.17;15.50;;;8.80;65.20;;;;;;5078441;28;20429;-77
2021/04/28 02:20:43;;;;;;;21.73;15.32;;;8.40;67.10;;;;;;5078408;28;20090;-78
2021/04/28 02:23:09;;;;;;;24.00;15.32;;;8.50;66.70;;;;;;5079102;28;20107;-78
2021/04/28 02:25:35;;;;;;;22.00;16.17;;;8.50;66.30;;;;;;5088134;28;20027;-78
2021/04/28 02:28:01;;;;;;;26.83;16.83;;;8.40;65.60;;;;;;5078381;28;20064;-77
2021/04/28 02:30:30;;;;;;;21.65;15.00;;;8.50;66.10;;;;;;5076621;28;20028;-78
2021/04/28 02:32:56;;;;;;;23.98;16.45;;;8.40;66.00;;;;;;5078594;28;20028;-78
2021/04/28 02:35:25;;;;;;;26.27;15.75;;;8.50;66.20;;;;;;5078324;28;20046;-78
2021/04/28 02:38:06;;;;;;;27.65;16.30;;;8.70;64.30;;;;;;5078410;28;20021;-78
2021/04/28 02:40:35;;;;;;;25.23;16.60;;;8.60;64.60;;;;;;5077506;28;20522;-78
2021/04/28 02:43:01;;;;;;;22.38;15.65;;;8.50;65.60;;;;;;5078719;28;20020;-78
2021/04/28 02:45:28;;;;;;;24.48;15.13;;;8.50;65.70;;;;;;5078055;28;20104;-78
2021/04/28 02:47:55;;;;;;;25.30;16.42;;;8.50;65.60;;;;;;5078143;28;20056;-77
2021/04/28 02:50:24;;;;;;;25.13;16.08;;;8.50;65.00;;;;;;5076014;28;20426;-77
2021/04/28 02:52:52;;;;;;;26.98;16.83;;;8.70;64.80;;;;;;5076474;28;20046;-78
2021/04/28 02:55:19;;;;;;;23.13;15.45;;;8.50;65.20;;;;;;5077891;28;20020;-78
2021/04/28 02:57:46;;;;;;;25.23;16.30;;;8.70;66.20;;;;;;5077584;28;20017;-78
2021/04/28 03:00:15;;;;;;;26.73;16.40;;;8.70;65.00;;;;;;5077283;28;20024;-78
2021/04/28 03:02:42;;;;;;;25.85;17.13;;;8.60;64.30;;;;;;5065928;28;20491;-77
2021/04/28 03:05:11;;;;;;;21.77;14.70;;;8.00;67.80;;;;;;5078076;28;20025;-77
2021/04/28 03:07:37;;;;;;;25.90;15.25;;;8.50;67.20;;;;;;5077763;28;20033;-77
2021/04/28 03:10:04;;;;;;;24.10;16.05;;;8.70;65.40;;;;;;5077583;28;20035;-77
2021/04/28 03:12:31;;;;;;;26.30;17.00;;;8.40;65.80;;;;;;5083462;28;20046;-77
2021/04/28 03:14:57;;;;;;;23.33;16.65;;;8.10;67.00;;;;;;5078322;28;20074;-77
2021/04/28 03:17:24;;;;;;;28.27;16.67;;;8.60;66.30;;;;;;5077481;28;20035;-77
2021/04/28 03:19:54;;;;;;;27.25;17.80;;;8.70;65.70;;;;;;5078107;28;20025;-78
2021/04/28 03:22:20;;;;;;;27.55;18.75;;;8.50;66.30;;;;;;5063542;28;20465;-78
2021/04/28 03:24:47;;;;;;;30.08;17.80;;;8.40;66.90;;;;;;5077615;28;20059;-77
2021/04/28 03:27:14;;;;;;;26.25;16.42;;;8.10;67.00;;;;;;5077855;28;20021;-78
2021/04/28 03:29:41;;;;;;;23.58;17.10;;;8.10;67.30;;;;;;5076555;28;20028;-78
2021/04/28 03:32:08;;;;;;;23.58;16.70;;;8.10;68.40;;;;;;5072907;28;20498;-78
2021/04/28 03:34:34;;;;;;;26.20;17.98;;;8.00;67.80;;;;;;5067291;28;20016;-78
2021/04/28 03:37:02;;;;;;;24.30;16.92;;;8.10;67.80;;;;;;5077070;28;20029;-78
2021/04/28 03:39:29;;;;;;;29.13;17.33;;;8.00;67.90;;;;;;5077231;28;20070;-78
2021/04/28 03:41:56;;;;;;;25.85;17.88;;;7.60;69.50;;;;;;5075935;28;20045;-78
2021/04/28 03:44:22;;;;;;;26.30;17.00;;;7.80;69.00;;;;;;5077647;28;20487;-77
2021/04/28 03:46:48;;;;;;;30.33;18.40;;;7.80;68.90;;;;;;5075553;28;20028;-78
2021/04/28 03:49:16;;;;;;;27.05;18.60;;;7.60;69.40;;;;;;5076731;28;20084;-77
2021/04/28 03:51:43;;;;;;;25.13;17.20;;;7.90;69.40;;;;;;5076857;28;20032;-77
2021/04/28 03:54:09;;;;;;;29.92;19.13;;;7.90;69.90;;;;;;5076976;28;20036;-78
2021/04/28 03:56:35;;;;;;;26.92;18.45;;;7.60;69.20;;;;;;5076851;28;20028;-78
2021/04/28 03:59:02;;;;;;;26.02;18.52;;;7.90;69.00;;;;;;5076397;28;20104;-78
2021/04/28 04:01:28;;;;;;;28.70;18.35;;;7.70;68.50;;;;;;5077192;28;20028;-78
2021/04/28 04:03:54;;;;;;;27.85;17.95;;;7.60;69.80;;;;;;5076919;28;20058;-78
2021/04/28 04:06:19;;;;;;;27.58;17.35;;;7.50;69.90;;;;;;5077337;28;20052;-78
2021/04/28 04:08:45;;;;;;;30.55;19.52;;;7.40;70.70;;;;;;5076308;28;20044;-77
2021/04/28 04:11:11;;;;;;;24.90;18.23;;;7.40;71.60;;;;;;5076167;28;20029;-78
2021/04/28 04:13:37;;;;;;;29.10;19.30;;;7.80;70.50;;;;;;5075751;28;20032;-78
2021/04/28 04:16:03;;;;;;;30.40;19.20;;;7.60;70.60;;;;;;5076860;28;20108;-78
2021/04/28 04:18:29;;;;;;;25.83;18.45;;;7.90;71.20;;;;;;5076899;28;20017;-78
2021/04/28 04:20:54;;;;;;;27.73;18.58;;;8.20;68.50;;;;;;5076777;28;20040;-77
2021/04/28 04:23:20;;;;;;;27.70;18.30;;;8.20;68.30;;;;;;5090436;28;20020;-77
2021/04/28 04:25:46;;;;;;;25.73;19.38;;;8.20;68.40;;;;;;5076925;28;20032;-77
2021/04/28 04:28:12;;;;;;;28.13;18.42;;;8.10;69.00;;;;;;5076592;28;20021;-78
2021/04/28 04:30:38;;;;;;;27.70;18.00;;;8.20;68.70;;;;;;5077033;28;20052;-78
2021/04/28 04:33:04;;;;;;;26.45;17.30;;;8.40;68.60;;;;;;5065913;28;20104;-77
2021/04/28 04:35:30;;;;;;;32.42;18.67;;;8.40;68.60;;;;;;5073361;28;20024;-77
2021/04/28 04:37:55;;;;;;;29.45;18.30;;;8.50;68.10;;;;;;5076460;28;20032;-78
2021/04/28 04:40:21;;;;;;;29.85;18.02;;;8.60;67.40;;;;;;5076291;28;20048;-78
2021/04/28 04:42:47;;;;;;;29.25;18.10;;;8.60;68.20;;;;;;5076899;28;20025;-78
2021/04/28 04:45:13;;;;;;;29.63;18.25;;;8.50;68.40;;;;;;5076567;28;20074;-77
2021/04/28 04:47:39;;;;;;;28.70;18.63;;;8.50;69.20;;;;;;5075243;28;20092;-78
2021/04/28 04:50:06;;;;;;;28.17;17.70;;;8.30;69.60;;;;;;5076399;28;20470;-78
2021/04/28 04:52:32;;;;;;;30.02;18.77;;;8.30;69.70;;;;;;5077048;28;20032;-78
2021/04/28 04:54:59;;;;;;;30.38;18.25;;;8.30;70.10;;;;;;5080559;28;20020;-78
2021/04/28 04:57:28;;;;;;;25.92;18.77;;;8.30;69.40;;;;;;5078399;28;20032;-77
2021/04/28 04:59:54;;;;;;;29.60;19.52;;;8.00;70.30;;;;;;5080492;28;20031;-78
2021/04/28 05:02:20;;;;;;;27.70;18.63;;;8.00;71.00;;;;;;5079790;28;20095;-78
2021/04/28 05:04:46;;;;;;;28.17;17.98;;;8.10;70.90;;;;;;5080250;28;20035;-77
2021/04/28 05:07:12;;;;;;;26.80;17.65;;;8.00;72.50;;;;;;5079864;28;20032;-78
2021/04/28 05:09:38;;;;;;;26.58;16.67;;;8.40;70.70;;;;;;5075165;28;20039;-78
2021/04/28 05:12:04;;;;;;;29.40;18.50;;;8.30;71.30;;;;;;5079770;28;20029;-78
2021/04/28 05:14:30;;;;;;;25.60;17.27;;;8.10;72.60;;;;;;5080351;28;20048;-77
2021/04/28 05:16:56;;;;;;;26.83;17.90;;;8.30;71.60;;;;;;5079368;28;20070;-80
2021/04/28 05:19:22;;;;;;;27.50;18.10;;;8.30;72.00;;;;;;5080216;28;20035;-82
2021/04/28 05:21:47;;;;;;;25.33;18.40;;;8.20;72.10;;;;;;5066142;28;20025;-77
2021/04/28 05:24:13;;;;;;;28.85;17.58;;;8.40;71.70;;;;;;5080119;28;20398;-77
2021/04/28 05:26:39;;;;;;;27.27;18.10;;;8.90;70.70;;;;;;5078553;28;20021;-76
2021/04/28 05:29:05;;;;;;;29.08;17.90;;;8.60;70.60;;;;;;5059149;28;20459;-79
2021/04/28 05:31:31;;;;;;;25.17;17.15;;;8.80;70.40;;;;;;5079573;28;20028;-80
2021/04/28 05:33:58;;;;;;;25.30;17.02;;;8.90;70.90;;;;;;5079682;28;20048;-81
2021/04/28 05:36:24;;;;;;;27.40;18.02;;;8.40;72.10;;;;;;5078530;28;20029;-78
2021/04/28 05:38:51;;;;;;;26.95;17.98;;;8.30;72.90;;;;;;5079619;28;20021;-77
2021/04/28 05:41:17;;;;;;;28.10;17.67;;;8.30;73.80;;;;;;5078474;28;20068;-71
2021/04/28 05:43:43;;;;;;;27.00;17.77;;;8.20;74.60;;;;;;5079829;28;20086;-72
2021/04/28 05:46:10;;;;;;;28.77;18.20;;;8.30;73.70;;;;;;5078835;28;20099;-75
2021/04/28 05:48:36;;;;;;;25.55;16.95;;;8.40;73.60;;;;;;5079605;28;20064;-76
2021/04/28 05:51:03;;;;;;;28.02;17.95;;;8.30;74.20;;;;;;5078284;28;20032;-75
2021/04/28 05:53:28;;;;;;;29.58;18.42;;;8.30;74.90;;;;;;5078861;28;20032;-77
2021/04/28 05:55:54;;;;;;;25.70;17.55;;;8.60;74.70;;;;;;5079013;28;20051;-77
2021/04/28 05:58:20;;;;;;;27.73;17.20;;;8.40;75.00;;;;;;5079032;28;20418;-75
2021/04/28 06:00:46;;;;;;;25.23;16.52;;;8.50;75.00;;;;;;5078965;28;20021;-76
2021/04/28 06:03:12;;;;;;;30.98;18.58;;;8.40;75.50;;;;;;5073295;28;20020;-77
2021/04/28 06:05:38;;;;;;;34.97;21.63;;;8.50;75.70;;;;;;5067673;28;20032;-77
2021/04/28 06:08:04;;;;;;;29.83;16.95;;;8.40;76.00;;;;;;5062681;28;20044;-77
2021/04/28 06:10:30;;;;;;;27.80;17.25;;;8.60;76.10;;;;;;5066244;28;20483;-77
2021/04/28 06:12:55;;;;;;;27.33;16.58;;;8.80;74.90;;;;;;5068926;28;20054;-77
2021/04/28 06:15:21;;;;;;;28.75;16.92;;;8.90;75.10;;;;;;5070768;28;20021;-78
2021/04/28 06:17:47;;;;;;;31.98;17.65;;;8.90;74.90;;;;;;5068330;28;20025;-78
2021/04/28 06:20:16;;;;;;;22.63;16.33;;;8.80;76.00;;;;;;5070241;28;20017;-75
2021/04/28 06:22:43;;;;;;;24.77;16.73;;;8.80;75.50;;;;;;5067035;28;20403;-76
2021/04/28 06:25:10;;;;;;;28.05;16.83;;;8.80;75.70;;;;;;5086067;28;20032;-76
2021/04/28 06:27:37;;;;;;;22.52;16.75;;;8.70;76.10;;;;;;5077016;28;20059;-77
2021/04/28 06:30:05;;;;;;;26.98;15.80;;;8.90;75.90;;;;;;5077446;28;20041;-77
2021/04/28 06:32:31;;;;;;;22.58;14.93;;;9.00;75.20;;;;;;5078019;28;20021;-77
2021/04/28 06:34:57;;;;;;;27.23;15.73;;;8.90;76.20;;;;;;5076175;28;20082;-76
2021/04/28 06:37:23;;;;;;;28.52;15.35;;;9.00;76.60;;;;;;5077179;28;20103;-77
2021/04/28 06:39:49;;;;;;;25.10;14.57;;;9.40;75.50;;;;;;5076509;28;20814;-76
2021/04/28 06:42:15;;;;;;;24.20;14.60;;;9.30;74.90;;;;;;5077892;28;20039;-77
2021/04/28 06:44:41;;;;;;;24.88;15.02;;;9.50;74.70;;;;;;5065713;28;20021;-77
2021/04/28 06:47:07;;;;;;;26.52;14.48;;;9.70;74.80;;;;;;5077231;28;20028;-76
2021/04/28 06:49:33;;;;;;;21.67;13.27;;;10.30;73.60;;;;;;5078268;28;20035;-76
2021/04/28 06:51:59;;;;;;;19.83;13.48;;;10.50;72.60;;;;;;5066008;28;20032;-76
2021/04/28 06:54:25;;;;;;;22.55;12.75;;;11.50;71.10;;;;;;5066640;28;20037;-77
2021/04/28 06:56:51;;;;;;;20.15;10.48;;;13.80;65.30;;;;;;5069508;28;20017;-77
2021/04/28 06:59:18;;;;;;;19.85;10.57;;;15.80;60.60;;;;;;5065708;28;20045;-78
2021/04/28 07:01:46;;;;;;;18.77;11.45;;;15.00;57.70;;;;;;5073662;28;20020;-78
2021/04/28 07:04:12;;;;;;;19.48;12.25;;;12.60;63.60;;;;;;5064847;28;20392;-77
2021/04/28 07:06:38;;;;;;;17.98;12.15;;;11.20;69.20;;;;;;5072886;28;20041;-77
2021/04/28 07:09:07;;;;;;;17.77;11.25;;;10.70;71.40;;;;;;5077332;28;20040;-78
2021/04/28 07:11:36;;;;;;;18.55;11.13;;;10.80;71.80;;;;;;5077622;28;20025;-78
2021/04/28 07:14:02;;;;;;;16.88;11.18;;;10.80;70.70;;;;;;5077701;28;20372;-78
2021/04/28 07:16:28;;;;;;;18.52;12.30;;;10.60;71.40;;;;;;5076103;28;20025;-77
2021/04/28 07:18:54;;;;;;;17.98;11.82;;;10.50;72.40;;;;;;5069108;28;20107;-77
2021/04/28 07:21:20;;;;;;;19.17;11.10;;;10.20;73.40;;;;;;5065222;28;20036;-76
2021/04/28 07:23:46;;;;;;;17.88;11.52;;;10.10;74.10;;;;;;5077277;28;20021;-76
2021/04/28 07:26:12;;;;;;;20.38;10.02;;;10.20;74.70;;;;;;5077321;28;20035;-76
2021/04/28 07:28:38;;;;;;;15.27;10.68;;;10.30;74.40;;;;;;5076600;28;20107;-76
2021/04/28 07:31:04;;;;;;;19.15;9.98;;;10.40;74.40;;;;;;5073232;28;20066;-76
2021/04/28 07:33:29;;;;;;;13.52;9.18;;;10.60;73.90;;;;;;5083596;28;20031;-76
2021/04/28 07:35:55;;;;;;;15.77;9.77;;;10.50;74.10;;;;;;5076823;28;20081;-76
2021/04/28 07:38:21;;;;;;;16.00;9.68;;;10.50;74.10;;;;;;5077278;28;20017;-76
2021/04/28 07:40:47;;;;;;;15.45;8.77;;;10.60;74.30;;;;;;5071515;28;20055;-75
2021/04/28 07:43:13;;;;;;;14.13;9.23;;;10.70;74.20;;;;;;5077394;28;20033;-76
2021/04/28 07:45:41;;;;;;;15.00;8.50;;;10.70;73.70;;;;;;5057312;28;20072;-76
2021/04/28 07:48:12;;;;;;;15.63;9.00;;;11.20;73.10;;;;;;5077387;28;20056;-75
2021/04/28 07:50:39;;;;;;;15.40;8.40;;;11.40;72.40;;;;;;5076602;28;20020;-75
2021/04/28 07:53:06;;;;;;;14.10;9.38;;;11.70;71.50;;;;;;5076742;28;20032;-75
2021/04/28 07:55:34;;;;;;;13.82;8.32;;;12.30;71.10;;;;;;5076755;28;20086;-77
2021/04/28 07:58:00;;;;;;;17.80;8.07;;;14.30;67.90;;;;;;5077330;28;20070;-77
2021/04/28 08:00:27;;;;;;;14.10;8.50;;;13.60;65.20;;;;;;5070756;28;20052;-76
2021/04/28 08:02:53;;;;;;;21.30;12.15;;;12.50;67.30;;;;;;5072337;28;20104;-75
2021/04/28 08:05:19;;;;;;;18.55;12.60;;;12.20;69.20;;;;;;5077157;28;20463;-75
2021/04/28 08:07:45;;;;;;;15.15;9.40;;;12.50;69.10;;;;;;5076189;28;20043;-76
2021/04/28 08:10:12;;;;;;;12.07;9.10;;;12.60;68.80;;;;;;5072411;28;20445;-76
2021/04/28 08:12:38;;;;;;;13.60;9.32;;;13.50;68.30;;;;;;5075369;28;20478;-76
2021/04/28 08:15:06;;;;;;;13.18;8.25;;;14.50;65.20;;;;;;5074146;28;20454;-76
2021/04/28 08:17:32;;;;;;;13.23;8.27;;;15.10;63.20;;;;;;5075911;28;20074;-77
2021/04/28 08:19:58;;;;;;;12.38;7.70;;;15.40;62.00;;;;;;5076821;28;20028;-75
2021/04/28 08:22:24;;;;;;;16.92;7.70;;;15.60;62.10;;;;;;5074928;28;20088;-79
2021/04/28 08:24:51;;;;;;;14.05;7.18;;;16.30;61.30;;;;;;5076895;28;20024;-78
2021/04/28 08:27:17;;;;;;;13.05;5.72;;;16.50;60.20;;;;;;5078345;28;20035;-76
2021/04/28 08:29:42;;;;;;;10.95;6.10;;;16.70;57.90;;;;;;5080612;28;20471;-78
2021/04/28 08:32:08;;;;;;;8.02;3.33;;;16.90;59.40;;;;;;5077324;28;20102;-77
2021/04/28 08:34:34;;;;;;;5.32;2.47;;;17.50;55.30;;;;;;5077180;28;20028;-77
2021/04/28 08:37:00;;;;;;;6.32;2.38;;;17.40;54.50;;;;;;5080152;28;20019;-78
2021/04/28 08:39:26;;;;;;;6.22;3.15;;;18.10;53.60;;;;;;5079085;28;20051;-77
2021/04/28 08:41:52;;;;;;;14.13;8.23;;;17.90;50.50;;;;;;5080142;28;20690;-78
2021/04/28 08:44:19;;;;;;;5.90;2.15;;;17.40;53.00;;;;;;5080567;28;20025;-76
2021/04/28 08:46:45;;;;;;;5.32;2.15;;;18.00;51.00;;;;;;5077654;28;20046;-77
2021/04/28 08:49:12;;;;;;;6.05;1.85;;;17.90;51.50;;;;;;5070139;28;20028;-78
2021/04/28 08:51:38;;;;;;;4.15;1.77;;;18.50;49.60;;;;;;5080079;28;20046;-78
2021/04/28 08:54:07;;;;;;;7.28;1.88;;;19.10;50.30;;;;;;5077337;28;20917;-79
2021/04/28 08:56:34;;;;;;;6.38;2.10;;;19.20;49.00;;;;;;5079626;28;20394;-78
2021/04/28 08:59:05;;;;;;;6.30;2.38;;;19.40;49.30;;;;;;5078230;28;20113;-78
2021/04/28 09:01:36;;;;;;;6.18;2.17;;;19.50;48.80;;;;;;5079595;28;20031;-77
2021/04/28 09:04:14;;;;;;;4.75;1.85;;;20.00;47.60;;;;;;5076895;28;20051;-78
2021/04/28 09:06:40;;;;;;;6.25;2.03;;;18.50;46.70;;;;;;5079091;28;20028;-77
2021/04/28 09:09:10;;;;;;;4.57;1.40;;;18.40;47.70;;;;;;5079062;28;20059;-77
2021/04/28 09:11:54;;;;;;;4.72;1.90;;;19.10;48.20;;;;;;5080073;28;20126;-77
2021/04/28 09:14:26;;;;;;;7.22;3.85;;;19.60;46.10;;;;;;5080085;28;20028;-76
2021/04/28 09:16:52;;;;;;;4.90;2.10;;;19.00;47.90;;;;;;5093662;28;20024;-77
2021/04/28 09:19:36;;;;;;;7.30;1.80;;;19.50;47.00;;;;;;5080022;28;20449;-78
2021/04/28 09:22:11;;;;;;;5.80;1.63;;;20.50;47.00;;;;;;5067659;28;20162;-77
2021/04/28 09:24:38;;;;;;;4.57;1.70;;;20.80;43.60;;;;;;5079038;28;20024;-77
2021/04/28 09:27:05;;;;;;;4.03;1.38;;;19.90;43.90;;;;;;5078925;28;20021;-77
2021/04/28 09:29:33;;;;;;;3.55;1.70;;;19.40;45.00;;;;;;5081998;28;20103;-78
2021/04/28 09:32:07;;;;;;;5.90;1.70;;;20.30;43.20;;;;;;5078801;28;20031;-78
2021/04/28 09:34:42;;;;;;;5.35;2.00;;;21.10;42.40;;;;;;5069505;28;20017;-78
2021/04/28 09:37:14;;;;;;;4.85;2.08;;;20.90;43.30;;;;;;5075494;28;20028;-78
2021/04/28 09:39:47;;;;;;;;;;;20.60;42.60;;;;;;5069022;28;20510;-78
2021/04/28 09:42:15;;;;;;;5.22;1.85;;;20.00;45.50;;;;;;5078923;28;19962;-78
2021/04/28 09:44:49;;;;;;;4.45;1.70;;;21.50;43.80;;;;;;5079211;28;20060;-77
2021/04/28 09:47:16;;;;;;;6.68;1.90;;;19.40;42.70;;;;;;5077336;28;20036;-78
2021/04/28 09:49:45;;;;;;;4.82;1.92;;;18.50;44.50;;;;;;5069357;28;20502;-78
2021/04/28 09:52:12;;;;;;;3.92;1.90;;;19.70;44.80;;;;;;5069979;28;20074;-78
2021/04/28 09:54:39;;;;;;;4.97;1.55;;;20.70;43.80;;;;;;5078863;28;20529;-79
2021/04/28 09:57:05;;;;;;;4.22;1.77;;;21.70;43.70;;;;;;5077013;28;20028;-78
2021/04/28 09:59:41;;;;;;;4.70;1.40;;;22.30;42.10;;;;;;5077871;28;20444;-77
2021/04/28 10:02:07;;;;;;;2.92;1.63;;;22.80;38.80;;;;;;5077245;28;20394;-79
2021/04/28 10:04:33;;;;;;;6.05;2.67;;;23.10;40.70;;;;;;5078540;28;20017;-79
2021/04/28 10:06:59;;;;;;;4.70;3.30;;;23.60;39.80;;;;;;5077713;28;20505;-79
2021/04/28 10:09:36;;;;;;;6.45;2.10;;;23.40;40.60;;;;;;5076355;28;20462;-79
2021/04/28 10:12:12;;;;;;;5.30;1.63;;;23.20;39.80;;;;;;5065701;28;20105;-79
2021/04/28 10:14:38;;;;;;;3.72;1.45;;;23.20;39.70;;;;;;5078719;28;20171;-79
2021/04/28 10:17:06;;;;;;;3.40;1.48;;;21.80;39.20;;;;;;5078939;28;20089;-79
2021/04/28 10:19:33;;;;;;;4.25;1.80;;;21.30;39.20;;;;;;5078702;28;20082;-79
2021/04/28 10:22:03;;;;;;;6.03;1.70;;;22.40;38.50;;;;;;5078802;28;20021;-79
2021/04/28 10:24:30;;;;;;;4.60;1.38;;;21.70;38.00;;;;;;5077074;28;20032;-79
2021/04/28 10:26:57;;;;;;;4.85;1.40;;;22.90;40.20;;;;;;5078694;28;20025;-79
2021/04/28 10:29:24;;;;;;;3.50;1.30;;;24.30;39.40;;;;;;5077340;28;20028;-79
2021/04/28 10:31:52;;;;;;;7.78;2.05;;;23.50;36.10;;;;;;5074927;28;20035;-78
2021/04/28 10:34:32;;;;;;;5.63;1.50;;;22.40;39.10;;;;;;5078244;28;20025;-79
2021/04/28 10:36:58;;;;;;;2.78;1.17;;;22.80;37.30;;;;;;5078138;28;20016;-78
2021/04/28 10:39:27;;;;;;;3.00;1.30;;;21.10;37.50;;;;;;5078063;28;20024;-78
2021/04/28 10:41:55;;;;;;;4.95;1.60;;;20.30;38.50;;;;;;5077860;28;20041;-78
2021/04/28 10:44:30;;;;;;;3.30;1.35;;;20.90;39.20;;;;;;5078714;28;20056;-78
2021/04/28 10:47:24;;;;;;;4.85;1.60;;;23.10;40.30;;;;;;5078282;28;20032;-78
2021/04/28 10:50:05;;;;;;;5.15;1.30;;;24.80;38.40;;;;;;5077828;28;20108;-79
2021/04/28 10:52:33;;;;;;;3.70;1.70;;;25.40;34.80;;;;;;5078211;28;20025;-78
2021/04/28 10:54:59;;;;;;;3.72;1.45;;;25.10;37.60;;;;;;5078043;28;20032;-78
2021/04/28 10:57:40;;;;;;;3.40;1.35;;;25.30;34.70;;;;;;5078260;28;20024;-78
2021/04/28 11:00:20;;;;;;;3.65;1.35;;;25.30;33.50;;;;;;5077835;28;20059;-78
2021/04/28 11:02:48;;;;;;;6.32;2.15;;;24.90;35.20;;;;;;5078084;28;20507;-78
2021/04/28 11:05:40;;;;;;;5.30;1.50;;;24.60;34.70;;;;;;5078155;28;20574;-78
2021/04/28 11:08:10;;;;;;;5.07;1.30;;;24.10;33.00;;;;;;5075799;28;20029;-78
2021/04/28 11:10:37;;;;;;;4.85;1.30;;;21.50;37.10;;;;;;5075324;28;20086;-77
2021/04/28 11:13:16;;;;;;;4.07;1.08;;;22.50;37.60;;;;;;5067779;28;20059;-80
2021/04/28 11:15:59;;;;;;;3.80;1.10;;;23.00;36.70;;;;;;5070041;28;20127;-73
2021/04/28 11:18:28;;;;;;;;;;;21.10;39.20;;;;;;5062957;28;20480;-73
2021/04/28 11:21:16;;;;;;;4.13;1.40;;;20.70;38.60;;;;;;5060211;28;19908;-76
2021/04/28 11:24:14;;;;;;;3.83;1.33;;;21.10;38.20;;;;;;5061199;28;20483;-75
2021/04/28 11:26:49;;;;;;;3.55;1.38;;;21.40;39.80;;;;;;5065319;28;20033;-75
2021/04/28 11:29:19;;;;;;;6.53;1.63;;;22.10;38.90;;;;;;5062304;28;20028;-75
2021/04/28 11:31:50;;;;;;;3.53;1.55;;;23.20;36.40;;;;;;5068124;28;20028;-74
2021/04/28 11:34:34;;;;;;;2.90;1.30;;;24.90;36.50;;;;;;5073603;28;20938;-74
2021/04/28 11:37:06;;;;;;;2.63;1.00;;;26.60;34.60;;;;;;5077288;28;20258;-76
2021/04/28 11:39:38;;;;;;;3.80;1.50;;;25.10;33.70;;;;;;5077121;28;20025;-75
2021/04/28 11:42:18;;;;;;;6.17;1.33;;;22.90;35.70;;;;;;5075676;28;20098;-74
2021/04/28 11:44:57;;;;;;;5.88;1.60;;;23.10;36.00;;;;;;5077140;28;20025;-75
2021/04/28 11:47:25;;;;;;;4.68;1.27;;;22.70;37.40;;;;;;5063186;28;20028;-76
2021/04/28 11:49:53;;;;;;;5.53;1.63;;;23.50;37.80;;;;;;5074218;28;20030;-75
2021/04/28 11:52:21;;;;;;;3.53;1.13;;;22.20;37.40;;;;;;5074014;28;20103;-75
2021/04/28 11:54:53;;;;;;;4.75;1.60;;;22.40;39.10;;;;;;5068113;28;20082;-76
2021/04/28 11:57:30;;;;;;;6.68;2.65;;;22.20;38.60;;;;;;5067655;28;20067;-76
2021/04/28 12:00:11;;;;;;;4.63;1.38;;;20.80;38.50;;;;;;5065660;28;20028;-76
2021/04/28 12:02:37;;;;;;;4.45;1.30;;;20.10;40.10;;;;;;5076160;28;20073;-76
2021/04/28 12:05:05;;;;;;;5.20;2.10;;;20.90;39.70;;;;;;5087886;28;20028;-76
2021/04/28 12:07:34;;;;;;;3.60;1.20;;;20.60;39.50;;;;;;5078968;28;20037;-76
2021/04/28 12:10:00;;;;;;;3.95;1.10;;;21.20;39.10;;;;;;5075401;28;20040;-77
2021/04/28 12:12:31;;;;;;;3.50;1.40;;;20.80;38.80;;;;;;5076847;28;20024;-76
2021/04/28 12:15:06;;;;;;;3.15;1.20;;;20.90;39.70;;;;;;5076995;28;20017;-76
2021/04/28 12:17:37;;;;;;;3.72;1.27;;;20.60;39.40;;;;;;5076001;28;20020;-76
2021/04/28 12:20:07;;;;;;;4.22;1.25;;;19.40;41.40;;;;;;5065942;28;20497;-76
2021/04/28 12:22:33;;;;;;;5.00;1.50;;;19.60;41.80;;;;;;5072279;28;20506;-76
2021/04/28 12:25:04;;;;;;;5.03;1.40;;;18.50;42.90;;;;;;5073530;28;20025;-75
2021/04/28 12:27:34;;;;;;;4.18;1.10;;;18.90;43.20;;;;;;5072567;28;20029;-75
2021/04/28 12:30:07;;;;;;;4.50;1.20;;;18.60;42.60;;;;;;5077664;28;20024;-76
2021/04/28 12:32:36;;;;;;;2.95;1.10;;;18.40;43.70;;;;;;5074473;28;20512;-75
2021/04/28 12:35:19;;;;;;;2.80;1.20;;;18.40;44.00;;;;;;5066680;28;20429;-75
2021/04/28 12:38:16;;;;;;;3.10;1.15;;;18.40;43.10;;;;;;5076165;28;20021;-76
2021/04/28 12:40:51;;;;;;;3.70;1.10;;;18.80;43.60;;;;;;5074914;28;20041;-76
2021/04/28 12:43:19;;;;;;;2.22;0.95;;;19.70;43.60;;;;;;5076521;28;20107;-76
2021/04/28 12:45:46;;;;;;;6.32;1.33;;;20.50;43.10;;;;;;5086126;28;20021;-76